Time;durP1;ratioP1;P1;durP2;ratioP2;P2;SDS_P1;SDS_P2;PMS_P1;PMS_P2;Temp;Humidity;BMP_temperature;BMP_pressure;BME280_temperature;BME280_humidity;BME280_pressure;Samples;Min_cycle;Max_cycle;Signal;HPM_P1;HPM_P2
2023/12/23 00:00:04;;;;;;;15.50;3.55;;;3.70;99.90;;;;;;5071355;28;20039;-67
2023/12/23 00:02:30;;;;;;;16.02;2.03;;;3.70;99.90;;;;;;5068813;28;20048;-67
2023/12/23 00:04:55;;;;;;;12.02;2.35;;;3.70;99.90;;;;;;5052995;28;20036;-68
2023/12/23 00:07:21;;;;;;;10.50;1.90;;;3.70;99.90;;;;;;5058023;28;20575;-67
2023/12/23 00:09:47;;;;;;;12.90;2.50;;;3.80;99.90;;;;;;5072848;28;20048;-68
2023/12/23 00:12:12;;;;;;;12.13;2.25;;;3.90;99.90;;;;;;5073600;28;20290;-67
2023/12/23 00:14:38;;;;;;;12.30;2.22;;;3.90;99.90;;;;;;5045197;28;20131;-67
2023/12/23 00:17:04;;;;;;;10.82;2.20;;;3.90;99.90;;;;;;5065382;28;20059;-68
2023/12/23 00:19:30;;;;;;;14.77;1.80;;;4.00;99.90;;;;;;5063486;28;20396;-67
2023/12/23 00:21:55;;;;;;;9.20;1.80;;;3.90;99.90;;;;;;5069406;28;20035;-67
2023/12/23 00:24:21;;;;;;;20.30;2.30;;;4.00;99.90;;;;;;5056430;28;20094;-67
2023/12/23 00:26:46;;;;;;;13.07;2.10;;;4.00;1.00;;;;;;5063547;28;20399;-67
2023/12/23 00:29:12;;;;;;;17.25;2.30;;;4.00;1.00;;;;;;5070931;28;20032;-67
2023/12/23 00:31:38;;;;;;;11.40;2.00;;;4.00;1.00;;;;;;5060975;28;20045;-67
2023/12/23 00:34:04;;;;;;;17.77;2.10;;;3.90;1.00;;;;;;5065698;28;20494;-67
2023/12/23 00:36:30;;;;;;;17.05;2.20;;;3.90;1.00;;;;;;5052368;28;20125;-67
2023/12/23 00:38:55;;;;;;;9.85;1.90;;;3.90;1.00;;;;;;5038620;28;20071;-67
2023/12/23 00:41:22;;;;;;;13.50;2.50;;;3.90;1.00;;;;;;5036439;28;20511;-68
2023/12/23 00:43:48;;;;;;;18.58;3.15;;;3.90;1.00;;;;;;5052689;28;20097;-67
2023/12/23 00:46:14;;;;;;;18.48;2.67;;;3.90;1.00;;;;;;5057596;28;20040;-67
2023/12/23 00:48:40;;;;;;;13.52;2.17;;;4.00;1.00;;;;;;5052165;28;20048;-67
2023/12/23 00:51:05;;;;;;;15.18;2.05;;;3.90;1.00;;;;;;5074569;28;20039;-67
2023/12/23 00:53:31;;;;;;;9.40;1.77;;;3.90;1.00;;;;;;5053228;28;20032;-68
2023/12/23 00:55:57;;;;;;;12.88;3.55;;;4.00;1.00;;;;;;5080276;28;20105;-67
2023/12/23 00:58:22;;;;;;;10.75;2.05;;;3.90;1.00;;;;;;5055528;28;20037;-67
2023/12/23 01:00:48;;;;;;;16.75;2.05;;;4.00;1.00;;;;;;5052830;28;20063;-67
2023/12/23 01:03:14;;;;;;;10.65;1.63;;;4.10;1.00;;;;;;5053471;28;20368;-67
2023/12/23 01:05:39;;;;;;;10.90;1.50;;;4.00;1.00;;;;;;5061688;28;20039;-67
2023/12/23 01:08:05;;;;;;;14.48;1.90;;;4.00;1.00;;;;;;5056419;28;20058;-67
2023/12/23 01:10:31;;;;;;;12.82;2.63;;;4.10;1.00;;;;;;5052892;28;20082;-67
2023/12/23 01:12:56;;;;;;;15.40;2.20;;;4.00;1.00;;;;;;5069016;28;20036;-67
2023/12/23 01:15:22;;;;;;;18.08;3.50;;;4.10;1.00;;;;;;5055787;28;20040;-67
2023/12/23 01:17:48;;;;;;;19.58;2.33;;;4.10;1.00;;;;;;5081742;28;20503;-67
2023/12/23 01:20:13;;;;;;;10.07;2.00;;;4.10;1.00;;;;;;5051256;28;20032;-67
2023/12/23 01:22:39;;;;;;;10.52;1.48;;;4.10;1.00;;;;;;5057684;28;20086;-67
2023/12/23 01:25:05;;;;;;;14.60;2.83;;;4.10;1.00;;;;;;5066533;28;20051;-67
2023/12/23 01:27:30;;;;;;;13.27;2.00;;;4.10;1.00;;;;;;5060198;28;20046;-67
2023/12/23 01:29:56;;;;;;;10.57;2.75;;;4.20;1.00;;;;;;5055827;28;20107;-67
2023/12/23 01:32:22;;;;;;;14.48;2.40;;;4.30;1.00;;;;;;5048019;28;20109;-67
2023/12/23 01:34:48;;;;;;;17.35;3.08;;;4.30;1.00;;;;;;5042045;28;20063;-67
2023/12/23 01:37:16;;;;;;;17.55;2.13;;;4.30;1.00;;;;;;5033133;28;20028;-68
2023/12/23 01:39:42;;;;;;;15.25;2.78;;;4.40;99.90;;;;;;5067526;28;20031;-67
2023/12/23 01:42:08;;;;;;;16.92;2.42;;;4.40;99.90;;;;;;5052497;28;20036;-67
2023/12/23 01:44:33;;;;;;;14.48;2.40;;;4.40;99.90;;;;;;5050947;28;20119;-68
2023/12/23 01:47:01;;;;;;;15.07;2.03;;;4.50;99.90;;;;;;5068171;28;20139;-67
2023/12/23 01:49:29;;;;;;;22.70;2.42;;;4.50;99.90;;;;;;5043631;28;20452;-67
2023/12/23 01:51:56;;;;;;;16.25;1.80;;;4.50;99.90;;;;;;5040886;28;20629;-68
2023/12/23 01:54:22;;;;;;;19.25;3.20;;;4.50;99.90;;;;;;5049412;28;20048;-68
2023/12/23 01:56:49;;;;;;;16.77;2.28;;;4.60;99.90;;;;;;5051295;28;20024;-67
2023/12/23 01:59:16;;;;;;;12.98;2.22;;;4.60;99.90;;;;;;5051605;28;20043;-68
2023/12/23 02:01:43;;;;;;;15.25;1.90;;;4.60;99.90;;;;;;5063497;28;20161;-69
2023/12/23 02:04:09;;;;;;;16.67;2.20;;;4.70;99.90;;;;;;5059096;28;20039;-67
2023/12/23 02:06:35;;;;;;;11.20;2.10;;;4.60;99.90;;;;;;5063214;28;20028;-67
2023/12/23 02:09:02;;;;;;;13.88;1.77;;;4.70;99.90;;;;;;5055677;28;20166;-68
2023/12/23 02:11:27;;;;;;;12.35;1.95;;;4.70;99.90;;;;;;5054743;28;20036;-68
2023/12/23 02:14:04;;;;;;;11.70;1.95;;;4.70;99.90;;;;;;5056153;28;20067;-66
2023/12/23 02:16:30;;;;;;;17.35;3.13;;;4.70;99.90;;;;;;5040729;28;20036;-67
2023/12/23 02:18:56;;;;;;;13.13;1.73;;;4.70;99.90;;;;;;5067594;28;20287;-68
2023/12/23 02:21:21;;;;;;;14.05;2.30;;;4.80;99.90;;;;;;5066615;28;20044;-67
2023/12/23 02:23:47;;;;;;;11.10;2.38;;;4.80;99.90;;;;;;5046960;28;20037;-67
2023/12/23 02:26:16;;;;;;;18.50;2.15;;;4.80;99.90;;;;;;5051015;28;20552;-67
2023/12/23 02:28:42;;;;;;;11.20;2.72;;;4.80;99.90;;;;;;5065256;28;20466;-67
2023/12/23 02:31:09;;;;;;;10.18;1.67;;;4.80;99.90;;;;;;5034634;28;20400;-67
2023/12/23 02:33:35;;;;;;;11.07;1.95;;;4.80;99.90;;;;;;5053728;28;20407;-67
2023/12/23 02:36:01;;;;;;;12.88;1.80;;;4.90;99.90;;;;;;5062469;28;20036;-68
2023/12/23 02:38:27;;;;;;;10.02;1.70;;;4.90;99.90;;;;;;5055972;28;20503;-68
2023/12/23 02:40:52;;;;;;;8.05;1.17;;;4.90;99.90;;;;;;5055180;28;20032;-68
2023/12/23 02:43:18;;;;;;;6.38;1.42;;;4.80;99.90;;;;;;5060168;28;20081;-67
2023/12/23 02:45:44;;;;;;;18.65;2.15;;;4.80;99.90;;;;;;5064318;28;20040;-67
2023/12/23 02:48:10;;;;;;;10.32;1.88;;;4.80;99.90;;;;;;5045598;28;20042;-66
2023/12/23 02:50:35;;;;;;;11.15;2.00;;;4.80;99.90;;;;;;5057021;28;20039;-68
2023/12/23 02:53:01;;;;;;;10.52;1.40;;;4.70;99.90;;;;;;5054307;28;20090;-67
2023/12/23 02:55:26;;;;;;;6.28;1.38;;;4.70;99.90;;;;;;5060954;28;20520;-69
2023/12/23 02:57:52;;;;;;;10.32;1.05;;;4.80;99.90;;;;;;5063460;28;20039;-67
2023/12/23 03:00:18;;;;;;;4.97;1.17;;;4.70;1.00;;;;;;5058260;28;20368;-67
2023/12/23 03:02:43;;;;;;;5.57;1.25;;;4.60;1.00;;;;;;5050535;28;20118;-67
2023/12/23 03:05:09;;;;;;;7.22;1.10;;;4.80;1.00;;;;;;5057011;28;20122;-67
2023/12/23 03:07:34;;;;;;;6.68;1.35;;;4.60;1.00;;;;;;5055941;28;20055;-67
2023/12/23 03:10:01;;;;;;;7.20;1.20;;;4.70;1.00;;;;;;5056658;28;20036;-66
2023/12/23 03:12:26;;;;;;;13.60;1.50;;;4.60;1.00;;;;;;5060458;28;20054;-68
2023/12/23 03:14:52;;;;;;;5.32;1.13;;;4.80;1.00;;;;;;5065125;28;20486;-68
2023/12/23 03:17:17;;;;;;;8.20;2.00;;;4.70;1.00;;;;;;5059237;28;20045;-67
2023/12/23 03:19:43;;;;;;;8.10;1.25;;;4.70;1.00;;;;;;5056603;28;20123;-68
2023/12/23 03:22:09;;;;;;;10.15;1.38;;;4.60;1.00;;;;;;5052876;28;20028;-68
2023/12/23 03:24:34;;;;;;;6.80;1.48;;;4.80;1.00;;;;;;5072164;28;20032;-67
2023/12/23 03:27:00;;;;;;;6.20;1.00;;;4.70;1.00;;;;;;5056078;28;20094;-67
2023/12/23 03:29:26;;;;;;;8.23;1.10;;;4.70;1.00;;;;;;5071483;28;20489;-69
2023/12/23 03:31:52;;;;;;;7.82;1.00;;;4.80;1.00;;;;;;5064487;28;20039;-68
2023/12/23 03:34:17;;;;;;;11.93;1.58;;;4.80;1.00;;;;;;5069039;28;20058;-68
2023/12/23 03:36:43;;;;;;;8.75;1.35;;;4.80;1.00;;;;;;5044484;28;20506;-68
2023/12/23 03:39:09;;;;;;;5.53;1.20;;;4.60;1.00;;;;;;5068409;28;20042;-69
2023/12/23 03:41:35;;;;;;;13.07;1.48;;;4.50;1.00;;;;;;5053676;28;20039;-69
2023/12/23 03:44:00;;;;;;;8.45;1.00;;;4.70;1.00;;;;;;5060153;28;20475;-69
2023/12/23 03:46:27;;;;;;;8.60;1.25;;;4.40;1.00;;;;;;5069367;28;20032;-69
2023/12/23 03:48:52;;;;;;;9.07;1.63;;;4.90;1.00;;;;;;5065964;28;20123;-68
2023/12/23 03:51:18;;;;;;;10.75;1.20;;;4.50;1.00;;;;;;5064216;28;20078;-69
2023/12/23 03:53:44;;;;;;;10.73;1.10;;;4.70;1.00;;;;;;5054877;28;20037;-68
2023/12/23 03:56:09;;;;;;;9.48;1.85;;;4.60;1.00;;;;;;5064854;28;20036;-69
2023/12/23 03:58:35;;;;;;;7.88;1.45;;;4.70;1.00;;;;;;5054425;28;20349;-69
2023/12/23 04:01:00;;;;;;;11.60;1.15;;;5.00;1.00;;;;;;5056501;28;20381;-69
2023/12/23 04:03:26;;;;;;;11.35;1.42;;;4.30;25.40;;;;;;5055300;28;20032;-69
2023/12/23 04:05:52;;;;;;;9.65;1.30;;;5.00;51.20;;;;;;5059211;28;20123;-68
2023/12/23 04:08:17;;;;;;;14.27;2.45;;;4.60;55.40;;;;;;5088442;28;20400;-69
2023/12/23 04:10:43;;;;;;;10.15;1.73;;;4.50;82.60;;;;;;5069104;28;20121;-69
2023/12/23 04:13:08;;;;;;;6.20;1.17;;;4.30;98.10;;;;;;5058669;28;20120;-69
2023/12/23 04:15:34;;;;;;;12.00;1.70;;;4.40;99.90;;;;;;5058568;28;20044;-70
2023/12/23 04:18:00;;;;;;;6.25;1.15;;;4.40;99.90;;;;;;5046551;28;20048;-71
2023/12/23 04:20:25;;;;;;;7.93;1.40;;;5.00;99.90;;;;;;5069083;28;20104;-71
2023/12/23 04:22:51;;;;;;;12.27;1.45;;;5.00;99.90;;;;;;5085423;28;20511;-71
2023/12/23 04:25:16;;;;;;;12.52;1.50;;;4.30;99.90;;;;;;5066464;28;20040;-70
2023/12/23 04:27:42;;;;;;;12.02;1.50;;;5.00;99.90;;;;;;5040125;28;20047;-71
2023/12/23 04:30:08;;;;;;;7.97;1.30;;;5.10;99.90;;;;;;5068390;28;20549;-71
2023/12/23 04:32:33;;;;;;;12.63;1.48;;;4.50;99.90;;;;;;5074901;28;20075;-71
2023/12/23 04:34:59;;;;;;;15.02;1.23;;;4.30;99.90;;;;;;5060957;28;20040;-72
2023/12/23 04:37:26;;;;;;;6.35;1.23;;;4.20;99.90;;;;;;5077765;28;20199;-73
2023/12/23 04:39:53;;;;;;;11.32;1.40;;;4.30;99.90;;;;;;5057544;28;20503;-73
2023/12/23 04:42:18;;;;;;;11.82;1.20;;;4.40;99.90;;;;;;5061785;28;20049;-72
2023/12/23 04:44:44;;;;;;;11.75;2.55;;;4.20;99.90;;;;;;5067403;28;20122;-72
2023/12/23 04:47:10;;;;;;;6.18;1.52;;;4.30;99.90;;;;;;5061310;28;20085;-72
2023/12/23 04:49:35;;;;;;;5.10;1.15;;;4.90;99.90;;;;;;5062485;28;20386;-72
2023/12/23 04:52:01;;;;;;;8.13;1.30;;;4.60;99.90;;;;;;5064382;28;20036;-73
2023/12/23 04:54:27;;;;;;;4.93;1.05;;;4.80;99.90;;;;;;5059489;28;20439;-73
2023/12/23 04:56:53;;;;;;;10.02;1.20;;;4.30;99.90;;;;;;5057997;28;20489;-72
2023/12/23 04:59:19;;;;;;;7.05;1.10;;;4.30;99.90;;;;;;5069648;28;20480;-72
2023/12/23 05:01:44;;;;;;;6.45;1.00;;;5.10;99.90;;;;;;5054198;28;20039;-72
2023/12/23 05:04:10;;;;;;;5.40;1.00;;;4.30;99.90;;;;;;5058868;28;20039;-71
2023/12/23 05:06:35;;;;;;;7.10;1.20;;;4.40;99.90;;;;;;5044383;28;20031;-70
2023/12/23 05:09:01;;;;;;;9.43;1.10;;;4.40;99.90;;;;;;5056215;28;20101;-72
2023/12/23 05:11:26;;;;;;;5.00;1.00;;;4.90;99.90;;;;;;5068365;28;20567;-71
2023/12/23 05:13:52;;;;;;;7.47;1.10;;;4.40;99.90;;;;;;5042646;28;20498;-71
2023/12/23 05:16:18;;;;;;;8.38;1.17;;;4.20;99.90;;;;;;5065164;28;20100;-71
2023/12/23 05:18:43;;;;;;;4.72;0.88;;;5.10;99.90;;;;;;5060298;28;20422;-71
2023/12/23 05:21:09;;;;;;;3.55;0.80;;;5.10;99.90;;;;;;5064359;28;20058;-71
2023/12/23 05:23:34;;;;;;;6.35;1.00;;;5.10;99.90;;;;;;5043187;28;20036;-70
2023/12/23 05:26:00;;;;;;;5.22;0.90;;;4.20;99.90;;;;;;5055627;28;20036;-71
2023/12/23 05:28:26;;;;;;;4.75;1.02;;;5.10;99.90;;;;;;5076923;28;20041;-70
2023/12/23 05:30:51;;;;;;;5.78;1.00;;;4.30;99.90;;;;;;5070648;28;20131;-70
2023/12/23 05:33:18;;;;;;;2.60;0.70;;;5.10;99.90;;;;;;5057733;28;20135;-71
2023/12/23 05:35:44;;;;;;;4.70;0.63;;;4.20;99.90;;;;;;5054288;28;20051;-69
2023/12/23 05:38:10;;;;;;;4.50;0.80;;;4.60;99.90;;;;;;5058837;28;20040;-70
2023/12/23 05:40:37;;;;;;;3.50;0.90;;;4.90;99.90;;;;;;5040041;28;20047;-70
2023/12/23 05:43:03;;;;;;;2.85;0.77;;;4.70;99.90;;;;;;5052037;28;20036;-70
2023/12/23 05:45:28;;;;;;;6.90;1.13;;;5.00;99.90;;;;;;5053610;28;20135;-69
2023/12/23 05:47:54;;;;;;;4.68;0.80;;;5.20;99.90;;;;;;5078282;28;20076;-70
2023/12/23 05:50:19;;;;;;;4.40;1.40;;;5.20;99.90;;;;;;5061646;28;20047;-69
2023/12/23 05:52:45;;;;;;;3.78;0.90;;;4.30;99.90;;;;;;5052300;28;20151;-69
2023/12/23 05:55:11;;;;;;;3.35;0.80;;;5.10;99.90;;;;;;5050462;28;20622;-69
2023/12/23 05:57:36;;;;;;;6.60;1.02;;;5.20;99.90;;;;;;5070093;28;20041;-69
2023/12/23 06:00:05;;;;;;;2.85;0.80;;;4.30;99.90;;;;;;5067935;28;20127;-69
2023/12/23 06:02:31;;;;;;;5.18;0.82;;;4.40;99.90;;;;;;5054129;28;20039;-69
2023/12/23 06:04:57;;;;;;;2.50;0.63;;;4.90;99.90;;;;;;5053289;28;20048;-69
2023/12/23 06:07:23;;;;;;;1.10;0.80;;;4.90;99.90;;;;;;5048030;28;20048;-68
2023/12/23 06:09:48;;;;;;;3.33;0.80;;;5.20;99.90;;;;;;5054902;28;20044;-68
2023/12/23 06:12:14;;;;;;;3.65;0.80;;;5.20;99.90;;;;;;5050802;28;20198;-68
2023/12/23 06:14:40;;;;;;;9.00;1.33;;;5.00;99.90;;;;;;5052737;28;20063;-69
2023/12/23 06:17:06;;;;;;;2.65;0.77;;;4.80;99.90;;;;;;5065916;28;20055;-69
2023/12/23 06:19:32;;;;;;;4.15;0.88;;;4.20;99.90;;;;;;5071379;28;20162;-69
2023/12/23 06:21:57;;;;;;;2.55;0.50;;;4.90;99.90;;;;;;5048090;28;20508;-70
2023/12/23 06:24:23;;;;;;;1.27;0.50;;;4.30;99.90;;;;;;5065761;28;20065;-70
2023/12/23 06:26:48;;;;;;;1.48;0.73;;;5.20;99.90;;;;;;5061971;28;20306;-70
2023/12/23 06:29:14;;;;;;;1.45;0.80;;;4.60;99.90;;;;;;5081600;28;20032;-70
2023/12/23 06:31:40;;;;;;;2.45;0.50;;;4.80;99.90;;;;;;5060007;28;21723;-70
2023/12/23 06:34:05;;;;;;;1.42;0.52;;;5.20;99.90;;;;;;5049331;28;20422;-70
2023/12/23 06:36:31;;;;;;;1.77;0.50;;;4.30;99.90;;;;;;5034401;28;20048;-71
2023/12/23 06:38:57;;;;;;;1.88;0.80;;;4.80;99.90;;;;;;5058929;28;20036;-71
2023/12/23 06:41:22;;;;;;;3.33;0.88;;;5.10;99.90;;;;;;5057661;28;20507;-71
2023/12/23 06:43:48;;;;;;;1.63;0.77;;;5.20;99.90;;;;;;5062983;28;20051;-71
2023/12/23 06:46:13;;;;;;;1.23;0.80;;;5.20;99.90;;;;;;5066700;28;20770;-71
2023/12/23 06:48:39;;;;;;;1.38;0.70;;;5.00;99.90;;;;;;5050192;28;20072;-71
2023/12/23 06:51:06;;;;;;;1.83;0.60;;;4.60;99.90;;;;;;5053004;28;20051;-70
2023/12/23 06:53:32;;;;;;;2.88;0.70;;;5.00;99.90;;;;;;5049212;28;20135;-71
2023/12/23 06:55:57;;;;;;;3.75;0.95;;;5.30;99.90;;;;;;5053100;28;20147;-71
2023/12/23 06:58:26;;;;;;;1.85;0.82;;;5.30;99.90;;;;;;5059439;28;20067;-73
2023/12/23 07:00:52;;;;;;;1.10;0.50;;;4.30;99.90;;;;;;5070008;28;20097;-71
2023/12/23 07:03:17;;;;;;;0.95;0.47;;;4.30;99.90;;;;;;5055812;28;20465;-72
2023/12/23 07:05:43;;;;;;;0.45;0.40;;;5.20;99.90;;;;;;5046540;28;20043;-72
2023/12/23 07:08:08;;;;;;;1.25;0.50;;;5.10;99.90;;;;;;5063928;28;20127;-71
2023/12/23 07:10:34;;;;;;;3.17;0.55;;;4.30;99.90;;;;;;5068867;28;20031;-71
2023/12/23 07:13:03;;;;;;;1.38;0.45;;;4.70;99.90;;;;;;5084905;28;20036;-71
2023/12/23 07:15:28;;;;;;;1.05;0.47;;;4.80;99.90;;;;;;5067452;28;20594;-71
2023/12/23 07:17:54;;;;;;;1.30;0.50;;;4.60;99.90;;;;;;5065744;28;20046;-71
2023/12/23 07:20:19;;;;;;;3.60;0.80;;;4.70;99.90;;;;;;5052810;28;20024;-71
2023/12/23 07:22:45;;;;;;;1.88;0.50;;;4.80;99.90;;;;;;5060459;28;20032;-71
2023/12/23 07:25:11;;;;;;;0.98;0.40;;;4.20;99.90;;;;;;5067233;28;20130;-72
2023/12/23 07:27:36;;;;;;;2.10;0.70;;;5.10;99.90;;;;;;5067346;28;20033;-72
2023/12/23 07:30:03;;;;;;;2.40;0.32;;;4.80;99.90;;;;;;5065306;28;20062;-73
2023/12/23 07:32:28;;;;;;;0.50;0.40;;;4.90;99.90;;;;;;5070024;28;20333;-72
2023/12/23 07:34:54;;;;;;;0.60;0.32;;;4.10;99.90;;;;;;5071603;28;20454;-72
2023/12/23 07:37:19;;;;;;;0.88;0.40;;;4.30;99.90;;;;;;5069636;28;20130;-74
2023/12/23 07:39:45;;;;;;;1.83;0.57;;;5.00;99.90;;;;;;5065928;28;20127;-72
2023/12/23 07:42:12;;;;;;;1.00;0.40;;;4.20;99.90;;;;;;5063977;28;20042;-72
2023/12/23 07:44:38;;;;;;;1.33;0.40;;;4.40;99.90;;;;;;5075050;28;20035;-72
2023/12/23 07:47:04;;;;;;;2.08;0.40;;;4.20;99.90;;;;;;5053560;28;20116;-71
2023/12/23 07:49:33;;;;;;;1.33;0.60;;;4.10;99.90;;;;;;5075856;28;20051;-71
2023/12/23 07:51:59;;;;;;;1.08;0.40;;;4.90;99.90;;;;;;5068129;28;20109;-71
2023/12/23 07:54:25;;;;;;;1.08;0.40;;;4.10;99.90;;;;;;5057078;28;20097;-71
2023/12/23 07:56:51;;;;;;;0.98;0.40;;;4.40;99.90;;;;;;5073552;28;20135;-71
2023/12/23 07:59:17;;;;;;;1.65;0.40;;;4.70;99.90;;;;;;5079796;28;20172;-71
2023/12/23 08:01:44;;;;;;;1.92;0.50;;;4.70;99.90;;;;;;5067635;28;20040;-71
2023/12/23 08:04:09;;;;;;;0.80;0.40;;;4.90;99.90;;;;;;5056119;28;20040;-71
2023/12/23 08:06:35;;;;;;;1.95;0.50;;;3.90;99.90;;;;;;5063742;28;20111;-71
2023/12/23 08:09:00;;;;;;;1.60;0.50;;;4.70;99.90;;;;;;5068238;28;20514;-70
2023/12/23 08:11:26;;;;;;;2.78;0.30;;;3.90;99.90;;;;;;5066510;28;20040;-71
2023/12/23 08:13:51;;;;;;;2.90;0.35;;;4.90;99.90;;;;;;5074805;28;20511;-70
2023/12/23 08:16:17;;;;;;;2.70;0.45;;;4.00;99.90;;;;;;5071111;28;20491;-70
2023/12/23 08:18:43;;;;;;;1.85;0.40;;;4.60;99.90;;;;;;5086282;28;20217;-70
2023/12/23 08:21:09;;;;;;;1.55;0.38;;;4.00;99.90;;;;;;5064753;28;20028;-70
2023/12/23 08:23:35;;;;;;;0.20;0.20;;;4.10;99.90;;;;;;5060783;28;20383;-71
2023/12/23 08:26:00;;;;;;;2.03;0.20;;;4.70;99.90;;;;;;5061818;28;20093;-71
2023/12/23 08:28:26;;;;;;;0.25;0.20;;;4.80;99.90;;;;;;5063030;28;20365;-71
2023/12/23 08:30:51;;;;;;;0.93;0.22;;;4.80;99.90;;;;;;5068821;28;20063;-71
2023/12/23 08:33:17;;;;;;;0.47;0.30;;;4.80;99.90;;;;;;5065223;28;20040;-70
2023/12/23 08:35:43;;;;;;;1.40;0.30;;;3.90;99.90;;;;;;5068182;28;20028;-70
2023/12/23 08:38:09;;;;;;;2.67;0.93;;;3.90;99.90;;;;;;5069095;28;20050;-70
2023/12/23 08:40:35;;;;;;;1.25;0.20;;;4.10;99.90;;;;;;5070973;28;20036;-70
2023/12/23 08:43:01;;;;;;;0.20;0.20;;;4.80;99.90;;;;;;5086120;28;20038;-70
2023/12/23 08:45:27;;;;;;;1.33;0.50;;;4.00;99.90;;;;;;5088540;28;20040;-69
2023/12/23 08:47:53;;;;;;;1.30;0.30;;;4.80;99.90;;;;;;5058964;28;20435;-70
2023/12/23 08:50:20;;;;;;;1.25;0.50;;;4.60;99.90;;;;;;5073760;28;20070;-71
2023/12/23 08:52:46;;;;;;;1.38;0.32;;;4.90;99.90;;;;;;5076061;28;20047;-70
2023/12/23 08:55:11;;;;;;;0.73;0.40;;;4.20;99.90;;;;;;5070931;28;20037;-71
2023/12/23 08:57:37;;;;;;;2.15;0.50;;;4.10;99.90;;;;;;5070448;28;20082;-70
2023/12/23 09:00:05;;;;;;;3.15;0.50;;;4.10;99.90;;;;;;5067224;28;20114;-70
2023/12/23 09:02:31;;;;;;;2.33;0.47;;;4.10;99.90;;;;;;5072084;28;20509;-69
2023/12/23 09:04:56;;;;;;;0.40;0.30;;;4.00;99.90;;;;;;5065559;28;20048;-71
2023/12/23 09:07:22;;;;;;;1.20;0.40;;;4.20;99.90;;;;;;5072189;28;20036;-69
2023/12/23 09:09:48;;;;;;;3.40;0.52;;;4.40;99.90;;;;;;5081108;28;20160;-69
2023/12/23 09:12:13;;;;;;;0.95;0.40;;;4.00;99.90;;;;;;5060636;28;20036;-69
2023/12/23 09:14:39;;;;;;;1.30;0.40;;;4.10;99.90;;;;;;5078163;28;20044;-70
2023/12/23 09:17:06;;;;;;;2.60;0.55;;;4.40;99.90;;;;;;5054133;28;20049;-69
2023/12/23 09:19:32;;;;;;;0.75;0.50;;;4.90;99.90;;;;;;5054223;28;20481;-70
2023/12/23 09:21:57;;;;;;;0.68;0.60;;;4.10;99.90;;;;;;5057624;28;20123;-69
2023/12/23 09:24:23;;;;;;;0.75;0.50;;;4.50;99.90;;;;;;5053400;28;20578;-69
2023/12/23 09:26:49;;;;;;;1.60;0.60;;;4.90;99.90;;;;;;5063775;28;20037;-70
2023/12/23 09:29:14;;;;;;;1.70;0.57;;;5.00;99.90;;;;;;5054739;28;20489;-70
2023/12/23 09:31:40;;;;;;;3.47;0.55;;;4.60;99.90;;;;;;5060768;28;20032;-70
2023/12/23 09:34:05;;;;;;;2.15;0.50;;;4.80;99.90;;;;;;5057034;28;20032;-69
2023/12/23 09:36:31;;;;;;;0.30;0.30;;;4.10;99.90;;;;;;5069961;28;20036;-69
2023/12/23 09:38:57;;;;;;;1.27;0.40;;;4.30;99.90;;;;;;5055924;28;20040;-69
2023/12/23 09:41:23;;;;;;;0.98;0.50;;;5.00;99.90;;;;;;5073775;28;20028;-70
2023/12/23 09:43:51;;;;;;;1.42;0.63;;;4.80;99.90;;;;;;5062874;28;20113;-70
2023/12/23 09:46:18;;;;;;;2.72;0.43;;;4.70;99.90;;;;;;5077475;28;20078;-69
2023/12/23 09:48:44;;;;;;;0.98;0.40;;;4.90;99.90;;;;;;5064515;28;20054;-69
2023/12/23 09:51:10;;;;;;;2.80;0.40;;;5.00;99.90;;;;;;5044498;28;20032;-69
2023/12/23 09:53:37;;;;;;;0.85;0.30;;;4.20;99.90;;;;;;5043830;28;20055;-70
2023/12/23 09:56:04;;;;;;;2.00;0.50;;;4.20;99.90;;;;;;5053607;28;20041;-69
2023/12/23 09:58:30;;;;;;;0.50;0.30;;;4.50;99.90;;;;;;5073031;28;20103;-69
2023/12/23 10:00:55;;;;;;;0.40;0.30;;;4.90;99.90;;;;;;5085090;28;20036;-69
2023/12/23 10:03:24;;;;;;;0.47;0.32;;;4.30;99.90;;;;;;5064206;28;20028;-69
2023/12/23 10:05:52;;;;;;;0.50;0.30;;;4.70;99.90;;;;;;5041586;28;20047;-69
2023/12/23 10:08:17;;;;;;;0.40;0.32;;;4.60;99.90;;;;;;5052124;28;20052;-69
2023/12/23 10:10:46;;;;;;;0.35;0.35;;;4.80;99.90;;;;;;5068525;28;20082;-69
2023/12/23 10:13:11;;;;;;;1.15;0.50;;;4.90;99.90;;;;;;5071413;28;20032;-69
2023/12/23 10:15:39;;;;;;;0.60;0.50;;;4.90;99.90;;;;;;5060798;28;20069;-70
2023/12/23 10:18:06;;;;;;;1.80;0.50;;;4.40;99.90;;;;;;5054745;28;20040;-69
2023/12/23 10:20:32;;;;;;;1.05;0.63;;;4.90;99.90;;;;;;5035310;28;20460;-69
2023/12/23 10:22:58;;;;;;;0.70;0.63;;;4.30;99.90;;;;;;5061190;28;20035;-69
2023/12/23 10:25:24;;;;;;;2.92;1.27;;;4.30;99.90;;;;;;5061882;28;20412;-68
2023/12/23 10:27:54;;;;;;;1.20;0.93;;;4.50;99.90;;;;;;5074964;28;20089;-70
2023/12/23 10:30:22;;;;;;;;;;;4.80;99.90;;;;;;5077805;28;20051;-70
2023/12/23 10:32:51;;;;;;;2.58;1.25;;;5.10;99.90;;;;;;5097405;28;19930;-69
2023/12/23 10:35:20;;;;;;;4.22;1.58;;;4.40;99.90;;;;;;5065008;28;20044;-69
2023/12/23 10:37:46;;;;;;;3.85;2.88;;;4.50;99.90;;;;;;5052827;28;20032;-69
2023/12/23 10:40:20;;;;;;;1.40;0.85;;;4.40;99.90;;;;;;5059379;28;20469;-69
2023/12/23 10:42:48;;;;;;;8.20;3.55;;;4.40;99.90;;;;;;5065702;28;20040;-69
2023/12/23 10:45:14;;;;;;;9.05;3.50;;;5.20;99.90;;;;;;5062158;28;20052;-70
2023/12/23 10:47:41;;;;;;;6.13;3.33;;;4.40;99.90;;;;;;5073260;28;20028;-69
2023/12/23 10:50:09;;;;;;;3.25;1.90;;;5.20;99.90;;;;;;5062505;28;20646;-69
2023/12/23 10:52:36;;;;;;;1.00;0.90;;;4.80;99.90;;;;;;5066951;28;20047;-69
2023/12/23 10:55:03;;;;;;;1.40;0.90;;;4.60;99.90;;;;;;5060575;28;20033;-69
2023/12/23 10:57:31;;;;;;;1.45;0.90;;;4.60;99.90;;;;;;5063674;28;20033;-69
2023/12/23 10:59:57;;;;;;;1.63;1.17;;;5.20;99.90;;;;;;5057649;28;20063;-69
2023/12/23 11:02:28;;;;;;;1.98;0.90;;;4.70;99.90;;;;;;5056346;28;20044;-70
2023/12/23 11:04:55;;;;;;;1.10;1.00;;;4.80;99.90;;;;;;5043876;28;20055;-70
2023/12/23 11:07:25;;;;;;;1.48;1.15;;;5.00;99.90;;;;;;5061730;28;20523;-70
2023/12/23 11:09:52;;;;;;;2.13;1.20;;;4.60;99.90;;;;;;5055636;28;20052;-70
2023/12/23 11:12:18;;;;;;;2.00;1.20;;;5.20;99.90;;;;;;5058560;28;20404;-70
2023/12/23 11:14:44;;;;;;;1.65;1.10;;;4.60;99.90;;;;;;5044482;28;20043;-70
2023/12/23 11:17:30;;;;;;;1.85;1.23;;;4.70;99.90;;;;;;5073563;28;20035;-70
2023/12/23 11:20:03;;;;;;;2.75;1.60;;;4.80;99.90;;;;;;5092532;28;20511;-70
2023/12/23 11:22:38;;;;;;;6.47;3.60;;;5.20;99.90;;;;;;5090854;28;20127;-70
2023/12/23 11:25:42;;;;;;;4.43;2.78;;;5.50;99.90;;;;;;5071655;28;20083;-70
2023/12/23 11:28:09;;;;;;;3.38;2.65;;;5.00;99.90;;;;;;5070547;28;20044;-69
2023/12/23 11:30:47;;;;;;;3.65;2.22;;;5.40;99.90;;;;;;5059840;28;20053;-69
2023/12/23 11:33:13;;;;;;;2.30;1.60;;;5.00;99.90;;;;;;5062401;28;20523;-70
2023/12/23 11:35:46;;;;;;;1.95;1.50;;;5.40;99.90;;;;;;5064407;28;20080;-69
2023/12/23 11:38:12;;;;;;;2.70;1.70;;;5.50;99.90;;;;;;5058978;28;20033;-69
2023/12/23 11:40:38;;;;;;;3.85;2.42;;;5.60;99.90;;;;;;5055927;28;20553;-69
2023/12/23 11:43:05;;;;;;;4.18;2.85;;;5.50;99.90;;;;;;5064365;28;20394;-69
2023/12/23 11:45:31;;;;;;;3.78;2.60;;;5.60;99.90;;;;;;5070444;28;20039;-70
2023/12/23 11:47:57;;;;;;;6.05;3.35;;;5.50;99.90;;;;;;5083842;28;20048;-70
2023/12/23 11:50:23;;;;;;;4.57;3.10;;;5.70;99.90;;;;;;5073741;28;20032;-70
2023/12/23 11:52:49;;;;;;;4.00;2.67;;;4.90;99.90;;;;;;5073779;28;20101;-69
2023/12/23 11:55:16;;;;;;;3.63;1.90;;;5.00;99.90;;;;;;5071568;28;20076;-69
2023/12/23 11:57:43;;;;;;;3.13;1.95;;;5.10;99.90;;;;;;5073840;28;20388;-70
2023/12/23 12:00:10;;;;;;;2.45;1.60;;;5.10;99.90;;;;;;5076636;28;20071;-70
2023/12/23 12:02:36;;;;;;;3.33;1.90;;;5.00;99.90;;;;;;5057039;28;20083;-69
2023/12/23 12:05:02;;;;;;;2.58;1.33;;;5.40;99.90;;;;;;5054655;28;20072;-69
2023/12/23 12:07:29;;;;;;;2.40;1.80;;;5.50;99.90;;;;;;5053205;28;20087;-69
2023/12/23 12:09:54;;;;;;;1.77;1.48;;;5.10;99.90;;;;;;5059581;28;20055;-68
2023/12/23 12:12:20;;;;;;;2.13;1.38;;;5.10;99.90;;;;;;5055574;28;20036;-68
2023/12/23 12:14:45;;;;;;;1.73;1.38;;;5.10;99.90;;;;;;5058486;28;20506;-68
2023/12/23 12:17:11;;;;;;;1.50;1.20;;;5.20;99.90;;;;;;5073385;28;20125;-69
2023/12/23 12:19:37;;;;;;;1.48;1.10;;;5.10;99.90;;;;;;5060996;28;20040;-69
2023/12/23 12:22:03;;;;;;;1.90;1.17;;;5.20;99.90;;;;;;5065319;28;20464;-69
2023/12/23 12:24:34;;;;;;;1.60;1.20;;;5.40;99.90;;;;;;5048281;28;20399;-69
2023/12/23 12:27:02;;;;;;;2.58;1.50;;;5.50;99.90;;;;;;5060435;28;20033;-69
2023/12/23 12:29:27;;;;;;;2.75;1.27;;;5.10;99.90;;;;;;5065014;28;20040;-69
2023/12/23 12:31:54;;;;;;;1.80;1.30;;;5.80;99.90;;;;;;5073910;28;21735;-69
2023/12/23 12:34:23;;;;;;;2.58;1.52;;;5.20;99.90;;;;;;5076005;28;20170;-68
2023/12/23 12:36:53;;;;;;;5.72;2.15;;;5.60;99.90;;;;;;5081033;28;20449;-68
2023/12/23 12:39:19;;;;;;;2.03;1.52;;;5.30;99.90;;;;;;5050938;28;20165;-68
2023/12/23 12:41:49;;;;;;;4.22;1.75;;;6.00;99.90;;;;;;5062289;28;20036;-68
2023/12/23 12:44:16;;;;;;;1.75;1.40;;;5.30;99.90;;;;;;5069799;28;20032;-68
2023/12/23 12:46:42;;;;;;;1.67;1.27;;;6.10;99.90;;;;;;5073851;28;20043;-68
2023/12/23 12:49:08;;;;;;;2.92;1.95;;;5.50;99.90;;;;;;5066942;28;20538;-68